WEATHER DATA
CUTM, PARALAKHEMUNDI CAMPUS
Date
Max.Temp.(◦C)
Min.Temp.(◦C)
Relative Humidity(%)
Wind Direction (N-S-E-W)
Wind Velocity  (Km/Hrs.)
Sun Shine Hours (Hrs.)

Rain Fall (Mm/Day)

17.01.2016

350C 150C 62% N 1.65    

08.01.2016

370C 160C 59% N 1.3 9 hrs  

06.01.2016

350C 150C 44% N-E 1.5 9 hrs  

05.01.2017

360C 160C 69% N-E 1.5 8 hrs  

04.01.2017

350C 150C 69% N-E 1.4 5 hrs  

03.01.2017

360C 150C 70% N-E 1.75 6 hrs  

02.01.2017

200C 400C 52% N-E 1.5 8 hrs  

28-12-2016

350C 140C 68% N-E 0.83 4.5 hrs  

26-12-2016

350C 150C 62% N-E 1.7 7.5 hrs  

24-12-2016

350C 150C 69% N-E 1.7 8 hrs  

23-12-2016

360C 150C 63% N-E 1.12  9 hrs
 

22-12-2016

380C 160C 42%  N-E 1.5
9 hrs  

20-12-2016

300C 150C 80% W-N   3.5 hrs  

15-12-2016

 390C 180  60%  N-E 1.3  9  hrs  

13-12-2016

370C 170C 59% N-W 1.2 8 hrs  

12-12-2016

300C 100C 85% W-S 1.35 3 hrs  

11-12-2016

350C 150C 61% W-S 1.12 7 hrs  

10-12-2016

390C 180C 64% W-NE 1.24 8.5 hrs  

9-12-2016

360C 170C 64% W-E 1.4 6.5 hrs  

8-12-2016

370C 160C 63% W-NE 1.44 9 hrs  

5-12-2016

370C 170C 70% W-N 1.6 8 hrs  

4-12-2016

380C 170C 71% W-N  2.0 8.5 hrs   

2-12-2016

290C 190C 62% N-E 1.45 2 hrs  

1-12-2016

400C 190C 50% N-W 1.3 6.5 hrs  

30-11-2016

370C 160C 70% W-N 1.22 8.5 hrs  

28-11-2016

390C 180C 59% W-NE 1.82 9 hrs  

24-11-2016

380C 170C 91% W-E 0.93 9.5 hrs  

23-11-2016

380C 170C 64% W-E 1.36 9.5 hrs  

22-11-2016

370C 160C 63% W-E 1.15    

21-11-2016

370C 160C 52% W-E 0.875
8.5 hrs
 

18-11-2016

380C 180C 58% W-E 0.87 7.5 hrs  

17-11-2016

390C 180C 61% W-E 1.62 6.5 hrs  

16-11-2016

400C 200C 78% W-E 1.87 6.5 hrs  

15-11-2016

400C 200C 84% S-N 1.8 6.5 hrs  

14-11-2016

420C 210C 68% W-E 7.6 7.5 hrs  

11.11.2016

370C 160C 62 % W-E 1.20 7.5 hrs  

10.11.2016

370C 170C


59 %

W-E 1.41 7 hrs   

09.11.2016

380C 170C 58%   2.12 7.5 hrs  

04.11.2016

430C 230C 59% W-SE 3.2   40

03.11.2016

400C
150C 84% E-W 3.3     

02.11.2016

400C 200C
72% E-W  4.5    

28.10.2016

430C 230C 63% W-E 0.95 6.5 hrs  

27.10.2016

380C 170C 77%  W-E 2.0 6 hrs  
26.10.2016 400C  240C  59%     S-N      2.70    6.5  hrs  
25.10.2016 370C  240C 70% W-E 1.50 4.5hrs  
24.10.2016 400C 200C 64% W-E 1.25   6 hrs  
22.10.2016 370C 240C 68% W-E 1.12 5 hrs  
21.10.2016 400C 200C 84% W-E 0.95  5 hrs   
20.10.2016 410C 190C 61% W-E 0.5 6 hrs   
19.10.2016 400C 200C 67% S-N 0.33 4.5 hrs   
18.10.2016 400C 200C 67% W-E 0.5 4 hrs  
17.10.2016 410C 200C 67% W-E 0.70    
16.10.2016 400C 200C 65% W-E 0.95    
05.10.2016 420C 250C 68% S-N 1.00    
03.10.2016 420C 210C 77% S-N 1.45    
02.10.2016 440C 230C 65% W-E 0.83    
31.09.2016 350C 150C 84% E-W 0.54   10.9mm
29.09.2016 430C 220C 72% E-W 0.5    

28.09.2016

290 190C 90%  E-W      

27.09.2016

400 240C 70% S-N      

26.09.2016

390 180C 90% W-E 0.75    

25.09.2016

380 190C 90 %   N-S    0.93    
23.09.2016  380 190C 92%  N-S  4.7     
22.09.2016  430 220C 70%  N-S  2.7 1 hrs   
21.09.2016  340 170C 92%  E-W  5.5     
20.09.2016  430 220C 70%  E-W  3.0  4 hrs  
19.09.2016  460 290C 58%  E-W  1.5  6 hrs  
18.09.2016  430 230C 73%  N-E  1.75  7 hrs  
16.09.2016  410 190C 78%  N-E  2.80  7 hrs   
15.09.2016  400 200C 78%         
14.09.2016  400 190C 85%         
13.09.2016 370 240 85%         
22.08.2016 410C 220C 58% N-E 1.04 8.5 hrs  
20.08.2016 380C 220C 65% N-E 0.63 10.0 hrs  
19.08.2016 420C 190C 79% N-E 3.42 9.0 hrs 12 mm
18.08.2016 410C 210C 68% S-E 1.0 10.5 hrs  
17.08.2016 390C 210C 77% N-E 0.83 9.5 hrs  
16.08.2016 380C 190C 78% N-E 1.90 7.5 hrs 7 mm
13.08.2016 410C 220C 65% S-E 1.31 10.5 hrs  
12.08.2016 420C 200C 68% S-W 1.83 10.5 hrs  
11.08.2016 390C 210C 71% N-E 1.03 10.0 hrs  
10.08.2016 400C 200C 68% N-E 0.92 9.5 hrs  
09.08.2016 400C 210C 63% N-E 0.76  10.5 hrs  
08.08.2016 390C 200C 75% S-E 1.01 9 hrs  
06.08.2016 400C 210C 68% S-E 0.62 8.5 hrs  
05.08.2016 360C 170C 76% N-E 0.67 7.5 hrs 1
04.08.2016 370C 180C 93% N-E 0.83 5 hrs 5
03.08.2016 380C 190C 78% S-E 1.83 7 hrs 2
02.08.2016 370C 190C 85% N-E 2.79 6 hrs 4
01.08.2016 380C 170C 88% S-E 2.89 7 hrs 11
30.07.2016 390C 210C 73% N-E 1.87 7.5 hrs 4
29.07.2016 390C 200C 76% N-E 2.04 6 hrs 11
28.07.2016 410C 200C 70% N-E 0.67 7 hrs 7
27.07.2016 370C 190C 88% N-E 1.33 7.5 hrs  
26.07.2016 390C 210C 82% N-E 1.44 6 hrs 4
25.07.2016 400C 200C 73% N-W 2.19 7.5 hrs  
23.07.2016 410C 200C 68% N-E 2.51 9 hrs  
22.07.2016 420C 210C 73% S-W 2.71 8.5 hrs 8
21.07.2016 400C 210C 79% S-E 2.04 8 hrs  
20.07.2016 390C 190C 78% N-E 3.67 9.5 hrs 3
19.07.2016 380C 190C 74% N-E 2.13 6 hrs  
18.07.2016 390C 210C 65% S-E 1.98 5.5 hrs 10
16.07.2016 380C 190C 85% N-E 2.46 4.5hrs 9
15.07.2016 420C 210C 68% S-E 2.45 7hrs 3
14.07.2016 420C 230C 51% N-E 2.75 8.5 hrs  
13.07.2016 400C 220C 65% S-E 2.12 7.5 hrs  
12.07.2016 410C 210C 54% N-E 1.12 8.5 hrs  
11.07.2016 400C 210C 61% N-E 1.31 8.5hrs  
09.07.2016 380C 190C 74% N-E 4.41 7 hrs
08.07.2016 380C 210C 67% S-E 2.14  8 hrs  
05.07.2016 380C 210C 65 n-E 4.3 4.5 hrs 13
04.07.2016 400C 210C 63 N-E 1.33 4 hrs  
02.07.2016 380C 180C 65 N-E 1.92 6.5 hrs  
01.07.2016 370C 190C 76 S-W 2.31 4 hrs 10
30.06.2016 390C 190C 68 N-E 3.2 6 hrs  
29.06.2016 380C 210C 89 N-E 2.13 2.5 hrs 8
28.06.2016 390C 200C 65 S-W 1.98 3 hrs 11
27.06.2016 370C 200C 76 N-E 1.93 7.5 hrs 4
25.06.2016 410C 220C 65 N-E 2.16 7.0 hrs  
24.06.2016 420C 230C 63 S-W 3.01 7.0 hrs 14
23.06.2016 420C 220C 58 S-W 2.51 7.0 hrs  
22.06.2016 410C 230C 73 N-E 1.93 7.5 hrs  
21.06.2016 400C 200C 71 S-E 2.0 8.5 hrs  
20.06.2016 410C 220C 76 S-W 3.21 7.0 hrs  
15.06.2016 430C 220C 66 E-N   2 hrs  
13.06.2016 420C 220C 69 E-S   9hr 30 min  
11.06.2016 40.50 200C 71 E-N   7hr  
10.06.2016 39.50 210C 69 S-E      
08.06.2016 390C 220C 66 E-S   4.3 hrs  
07.06.2016 405C 205C 66  S-E   5.3 hrs  
06.06.2016 400C 200C   N-E   6.3 hrs  
01.06.2016 420C 220C 71% N-E 2.21 8.5 hrs 5
31.05.2016 420C 210C 68% N-E 4.58 7.5 hrs 13
30.05.2016 440C 220C 68% N-E 4.13 11 hrs  
28.05.2016 410C 210C 70% N-E 3.3 9.5 hrs  
27.05.2016 420C 230C 61% N-E 4.1 10 hrs  
26.05.2016 440C 230C 58% S-W 5.16 10.5hrs  
24.05.2016 450C 230C 48% S-W 3.33 11 hrs  
23.05.2016 440C 240C 54% N-E 3.51 11.5 hrs  
21.05.2016 340C 210C 79% S-W 3.21    
20.05.2016 310C 200C 92% S-E 6.29   18
19.05.2016 320C 210C 84% S-E 10.42 7hrs 22
18.05.2016 390C 200C 68% S-E 4.75  9.5 hrs  
17.05.2016 420C 210C 55% S-W 3.79 10 hrs  
16.05.2016 420C 220C 58% N-E 4.1 9.5 hrs  
02.05.2016 440C 240C 54% N-E 3.2 10.5 hrs  
30.04.2016 430C 210C 61% S-W 7.56 9.5 hrs  
23.04.2016 450C 260C 52% N-E 5.75 10.5 hrs  
22.04.2016 450C 250C 52% N-E 6.17 10.5 hrs  
21.04.2016 430C 220C 51% N-E 5.17 10.5 hrs  
20.04.2016 450C 260C 48% N-E 4.4 10.5 hrs  
18.04.2016 430C 240C 51% N-E 4.23 10.5 hrs  
16.04.2016 420C 270C 57% S-E 4.75 9.0 hrs  
14.04.2016 440C 240C 51% N-E 5.73 10.0 hrs  
12.04.2016 440C 270C 49% N-E 3.71 10.0 hrs  
11.04.2016 450C 270C 47% N-E 4.23 9.5 hrs  
09.04.2016 460C 280C 45% N-E 4.5  10 hrs  
08.04.2016 45◦C 24◦C 47% N-E 3.83 10 hrs  
07.04.2016 45◦C 25◦C 55% S-E 5.54 9.5 hrs  
06.04.2016 43◦C 23◦C 58% N-E 5.33    
05.04.2016 44◦C 26◦C 54% S-E 4.75    
02.04.2016 40◦C 23◦C 63% N-E 4.12    
31.03.2016 40◦C 21◦C 64% N-E 3.46    
30.03.2016 42◦C 22◦C 59% N-E 2.77    
29-3-2016 40◦C 21◦C 62% N-W 4.42    
28.03.2016 43◦C 24◦C 46% S-W 3.86    
25.3.2016 42◦C 26◦C 48% N-E 3.08    
23-3-2016 41◦C 23◦C 54% N-E 2.42    
22-3-2016 42◦C 25◦C 48% N-E 3.29    
21-3-2016 42◦C 23◦C 51% N-E 2.45    
19.3.2016 46◦C 26◦C 54% N-E 4.42    
18.3.2016 42◦C 28◦C 48% S-E 2.37

 

Academics

AIU membership

UGC Approval

AICTE Approval

NAAC Accredited A Grade

NOC Higher Education

Gazette Info

Academic Calander

 NEW ACADEMIC CALENDAR OF ALL EVEN SEMESTERS

   
Arrow IKS(BA & MA In Media & Communication))Academic Calendar (2015-16)
   
Arrow MSSSoA(B.Sc.- Ag.) Academic Calendar-2016-17
   
Arrow MSSSoA(Diploma-Ag.) Academic calendar-2016-17
   
Arrow SoAPD(B.Arch.) Academic Calender (2016-17)
   
Arrow SoAS(B.sc & M.Sc. & BCA)Academic Calendar (2016-17)
   
Arrow
 
Arrow
 
Arrow
 
Arrow
 
Arrow
 
 

 NEW ACADEMIC CALENDER OF ALL ODD SEMESTERS

Arrow
   
Arrow
   
Arrow
   
Arrow
   
Arrow
   
Arrow
 
Arrow
   
Arrow
 
Arrow
   
Arrow
   
Arrow
   
Arrow
 
Arrow
 
Arrow
 
Arrow
   
Arrow
 
Arrow
 
Arrow
 
Arrow
 
 

 

 

Facebook

Search